Terminal Aerodrome Forecast
Issued by NWS

Home | Current Version | Previous Version | Text Only | Print | Product List | Glossary On
Versions: 1 2 3 4 5 6 7 8 9 10 11 12 13 14 15 16
000
FTUS44 KLIX 190900 AAB
TAFMSY
TAF AMD
KMSY 190909Z 1909/2006 12005KT P6SM VCSH SCT015 BKN040 BKN100
     FM191400 10008KT P6SM VCSH SCT030 BKN090
     FM191700 13009KT P6SM SCT035 BKN110
     FM200000 11007KT P6SM SCT110 BKN250=

USA.gov is the U.S. government's official web portal to all federal, state and local government web resources and services.